Time,TemperatureF,DewpointF,PressureIn,WindDirection,WindDirectionDegrees,WindSpeedMPH,WindSpeedGustMPH,Humidity,HourlyPrecipIn,Conditions,Clouds,dailyrainin,SoftwareType,DateUTC
2013-01-31 08:02:00,30.0,16.0,-100.00,SSE,165,2.0,4.0,55,-99.99,,,-99.99,,2013-01-31 14:02:00,
2013-01-31 08:11:00,30.0,16.0,-100.00,SSE,155,4.0,6.0,56,-99.99,,,-99.99,,2013-01-31 14:11:00,
2013-01-31 08:22:00,30.0,16.0,-100.00,ESE,105,1.0,2.0,56,-99.99,,,-99.99,,2013-01-31 14:22:00,
2013-01-31 08:32:00,30.0,16.0,-100.00,ESE,105,1.0,2.0,56,-99.99,,,-99.99,,2013-01-31 14:32:00,
2013-01-31 08:42:00,31.0,17.0,-100.00,SSE,150,3.0,6.0,57,-99.99,,,-99.99,,2013-01-31 14:42:00,
2013-01-31 08:52:00,31.0,17.0,-100.00,South,170,4.0,6.0,56,-99.99,,,-99.99,,2013-01-31 14:52:00,
2013-01-31 09:03:00,31.0,17.0,-100.00,South,170,4.0,6.0,56,-99.99,,,-99.99,,2013-01-31 15:03:00,
2013-01-31 09:12:00,31.0,17.0,-100.00,SSE,165,6.0,6.0,56,-99.99,,,-99.99,,2013-01-31 15:12:00,
2013-01-31 09:22:00,31.0,17.0,-100.00,SE,135,3.0,6.0,55,-99.99,,,-99.99,,2013-01-31 15:22:00,
2013-01-31 09:32:00,31.0,17.0,-100.00,SE,135,3.0,6.0,55,-99.99,,,-99.99,,2013-01-31 15:32:00,
2013-01-31 09:42:00,31.0,17.0,-100.00,SE,135,1.0,4.0,55,-99.99,,,-99.99,,2013-01-31 15:42:00,
2013-01-31 09:52:00,32.0,17.0,-100.00,SSE,160,4.0,6.0,54,-99.99,,,-99.99,,2013-01-31 15:52:00,
2013-01-31 10:03:00,32.0,17.0,-100.00,SSE,160,4.0,6.0,54,-99.99,,,-99.99,,2013-01-31 16:03:00,
2013-01-31 10:12:00,32.0,17.0,-100.00,SSE,155,6.0,10.0,53,-99.99,,,-99.99,,2013-01-31 16:12:00,
2013-01-31 10:22:00,32.0,16.0,-100.00,SSE,155,4.0,6.0,51,-99.99,,,-99.99,,2013-01-31 16:22:00,
2013-01-31 10:33:00,32.0,16.0,-100.00,SSE,155,4.0,6.0,51,-99.99,,,-99.99,,2013-01-31 16:33:00,
2013-01-31 10:42:00,32.0,16.0,-100.00,SSE,155,4.0,6.0,51,-99.99,,,-99.99,,2013-01-31 16:42:00,
2013-01-31 10:52:00,33.0,16.0,-100.00,NNE,15,0.0,3.0,49,-99.99,,,-99.99,,2013-01-31 16:52:00,
2013-01-31 11:02:00,33.0,16.0,-100.00,NNE,15,0.0,3.0,49,-99.99,,,-99.99,,2013-01-31 17:02:00,
2013-01-31 11:12:00,33.0,16.0,-100.00,NNE,15,0.0,3.0,49,-99.99,,,-99.99,,2013-01-31 17:12:00,
2013-01-31 11:23:00,35.0,17.0,-100.00,South,175,1.0,6.0,48,-99.99,,,-99.99,,2013-01-31 17:23:00,
2013-01-31 11:32:00,35.0,17.0,-100.00,South,175,1.0,6.0,48,-99.99,,,-99.99,,2013-01-31 17:32:00,
2013-01-31 11:43:00,35.0,17.0,-100.00,SSE,160,3.0,6.0,47,-99.99,,,-99.99,,2013-01-31 17:43:00,
2013-01-31 11:53:00,36.0,18.0,-100.00,SSE,165,6.0,10.0,47,-99.99,,,-99.99,,2013-01-31 17:53:00,
2013-01-31 12:00:00,37.0,17.0,-100.00,South,170,9.0,14.0,44,-99.99,,,-99.99,,2013-01-31 18:00:00,
2013-01-31 12:03:00,36.0,18.0,-100.00,SSE,165,6.0,10.0,47,-99.99,,,-99.99,,2013-01-31 18:03:00,
2013-01-31 12:12:00,36.0,17.0,-100.00,South,170,3.0,12.0,46,-99.99,,,-99.99,,2013-01-31 18:12:00,
2013-01-31 12:22:00,37.0,17.0,-100.00,South,185,6.0,10.0,45,-99.99,,,-99.99,,2013-01-31 18:22:00,
2013-01-31 12:32:00,37.0,17.0,-100.00,South,185,6.0,10.0,45,-99.99,,,-99.99,,2013-01-31 18:32:00,
2013-01-31 12:43:00,37.0,17.0,-100.00,South,170,9.0,14.0,44,-99.99,,,-99.99,,2013-01-31 18:43:00,
2013-01-31 12:52:00,37.0,17.0,-100.00,South,170,9.0,14.0,44,-99.99,,,-99.99,,2013-01-31 18:52:00,
2013-01-31 13:12:00,39.0,18.0,-100.00,SSE,160,4.0,8.0,43,-99.99,,,-99.99,,2013-01-31 19:12:00,
2013-01-31 13:22:00,39.0,18.0,-100.00,SE,145,12.0,16.0,42,-99.99,,,-99.99,,2013-01-31 19:22:00,
2013-01-31 13:32:00,39.0,18.0,-100.00,SE,145,12.0,16.0,42,-99.99,,,-99.99,,2013-01-31 19:32:00,
2013-01-31 13:42:00,39.0,18.0,-100.00,SE,145,12.0,16.0,42,-99.99,,,-99.99,,2013-01-31 19:42:00,
2013-01-31 13:52:00,40.0,19.0,-100.00,SSE,150,9.0,16.0,41,-99.99,,,-99.99,,2013-01-31 19:52:00,
2013-01-31 14:02:00,40.0,19.0,-100.00,SSE,150,9.0,16.0,41,-99.99,,,-99.99,,2013-01-31 20:02:00,
2013-01-31 14:11:00,40.0,18.0,-100.00,West,260,1.0,3.0,40,-99.99,,,-99.99,,2013-01-31 20:11:00,
2013-01-31 14:22:00,41.0,18.0,-100.00,SE,135,6.0,9.0,40,-99.99,,,-99.99,,2013-01-31 20:22:00,
2013-01-31 14:31:00,41.0,18.0,-100.00,SE,135,6.0,9.0,40,-99.99,,,-99.99,,2013-01-31 20:31:00,
2013-01-31 14:42:00,41.0,18.0,-100.00,SE,135,6.0,9.0,40,-99.99,,,-99.99,,2013-01-31 20:42:00,
2013-01-31 14:52:00,41.0,18.0,-100.00,NE,50,0.0,0.0,40,-99.99,,,-99.99,,2013-01-31 20:52:00,
2013-01-31 15:02:00,41.0,18.0,-100.00,NE,50,0.0,0.0,40,-99.99,,,-99.99,,2013-01-31 21:02:00,
2013-01-31 15:12:00,40.0,18.0,-100.00,SW,230,6.0,10.0,40,-99.99,,,-99.99,,2013-01-31 21:12:00,
2013-01-31 15:22:00,40.0,18.0,-100.00,South,185,3.0,6.0,41,-99.99,,,-99.99,,2013-01-31 21:22:00,
2013-01-31 15:32:00,40.0,18.0,-100.00,South,185,3.0,6.0,41,-99.99,,,-99.99,,2013-01-31 21:32:00,
2013-01-31 15:42:00,40.0,18.0,-100.00,South,185,3.0,6.0,41,-99.99,,,-99.99,,2013-01-31 21:42:00,
2013-01-31 15:52:00,39.0,21.0,-100.00,NNW,335,2.0,6.0,48,-99.99,,,-99.99,,2013-01-31 21:52:00,
2013-01-31 16:03:00,39.0,21.0,-100.00,NNW,335,2.0,6.0,48,-99.99,,,-99.99,,2013-01-31 22:03:00,
2013-01-31 16:11:00,37.0,23.0,-100.00,South,185,2.0,3.0,56,-99.99,,,-99.99,,2013-01-31 22:11:00,
2013-01-31 16:22:00,36.0,26.0,-100.00,NW,305,1.0,6.0,67,-99.99,,,-99.99,,2013-01-31 22:22:00,
2013-01-31 16:33:00,36.0,26.0,-100.00,NW,305,1.0,6.0,67,-99.99,,,-99.99,,2013-01-31 22:33:00,
2013-01-31 16:42:00,36.0,26.0,-100.00,NW,305,1.0,6.0,67,-99.99,,,-99.99,,2013-01-31 22:42:00,
2013-01-31 16:52:00,34.0,29.0,-100.00,NNE,20,2.0,4.0,81,-99.99,,,-99.99,,2013-01-31 22:52:00,
2013-01-31 17:00:00,34.0,24.0,-100.00,North,0,3.0,6.0,66,-99.99,,,-99.99,,2013-01-31 23:00:00,
2013-01-31 17:02:00,34.0,29.0,-100.00,NNE,20,2.0,4.0,81,-99.99,,,-99.99,,2013-01-31 23:02:00,
2013-01-31 17:12:00,34.0,29.0,-100.00,SW,230,3.0,6.0,81,-99.99,,,-99.99,,2013-01-31 23:12:00,
2013-01-31 17:22:00,34.0,28.0,-100.00,NE,35,3.0,9.0,78,-99.99,,,-99.99,,2013-01-31 23:22:00,
2013-01-31 17:32:00,34.0,28.0,-100.00,NE,35,3.0,9.0,78,-99.99,,,-99.99,,2013-01-31 23:32:00,
2013-01-31 17:42:00,34.0,24.0,-100.00,North,0,3.0,6.0,66,-99.99,,,-99.99,,2013-01-31 23:42:00,
2013-01-31 17:52:00,34.0,24.0,-100.00,North,0,3.0,6.0,66,-99.99,,,-99.99,,2013-01-31 23:52:00,
2013-01-31 18:11:00,33.0,19.0,-100.00,NE,35,2.0,6.0,56,-99.99,,,-99.99,,2013-02-01 00:11:00,
2013-01-31 18:22:00,33.0,19.0,-100.00,ENE,70,3.0,6.0,56,-99.99,,,-99.99,,2013-02-01 00:22:00,
2013-01-31 18:32:00,32.0,19.0,-100.00,North,0,6.0,14.0,56,-99.99,,,-99.99,,2013-02-01 00:32:00,
2013-01-31 18:52:00,32.0,17.0,-100.00,North,0,11.0,14.0,54,-99.99,,,-99.99,,2013-02-01 00:52:00,
2013-01-31 19:01:00,32.0,17.0,-100.00,North,0,11.0,14.0,54,-99.99,,,-99.99,,2013-02-01 01:01:00,
2013-01-31 19:11:00,30.0,12.0,-100.00,North,0,11.0,19.0,46,-99.99,,,-99.99,,2013-02-01 01:11:00,
2013-01-31 19:21:00,29.0,12.0,-100.00,North,0,16.0,27.0,48,-99.99,,,-99.99,,2013-02-01 01:21:00,
2013-01-31 19:42:00,28.0,11.0,-100.00,NNE,15,10.0,16.0,47,-99.99,,,-99.99,,2013-02-01 01:42:00,
2013-01-31 19:52:00,26.0,12.0,-100.00,NNW,345,14.0,21.0,55,-99.99,,,-99.99,,2013-02-01 01:52:00,
2013-01-31 20:02:00,26.0,12.0,-100.00,NNW,345,14.0,21.0,55,-99.99,,,-99.99,,2013-02-01 02:02:00,
2013-01-31 20:11:00,26.0,13.0,-100.00,NNW,345,12.0,16.0,57,-99.99,,,-99.99,,2013-02-01 02:11:00,
2013-01-31 20:21:00,25.0,12.0,-100.00,North,350,14.0,18.0,57,-99.99,,,-99.99,,2013-02-01 02:21:00,
2013-01-31 20:32:00,25.0,12.0,-100.00,North,350,14.0,18.0,57,-99.99,,,-99.99,,2013-02-01 02:32:00,
2013-01-31 20:42:00,25.0,12.0,-100.00,North,350,14.0,18.0,57,-99.99,,,-99.99,,2013-02-01 02:42:00,
2013-01-31 20:52:00,24.0,9.0,-100.00,North,0,12.0,21.0,51,-99.99,,,-99.99,,2013-02-01 02:52:00,
2013-01-31 21:02:00,24.0,9.0,-100.00,North,0,12.0,21.0,51,-99.99,,,-99.99,,2013-02-01 03:02:00,
2013-01-31 21:12:00,24.0,7.0,-100.00,NNW,335,10.0,16.0,49,-99.99,,,-99.99,,2013-02-01 03:12:00,
2013-01-31 21:21:00,23.0,7.0,-100.00,NNW,340,9.0,14.0,49,-99.99,,,-99.99,,2013-02-01 03:21:00,
2013-01-31 21:32:00,23.0,7.0,-100.00,NNW,340,9.0,14.0,49,-99.99,,,-99.99,,2013-02-01 03:32:00,
2013-01-31 21:42:00,23.0,7.0,-100.00,North,0,4.0,9.0,51,-99.99,,,-99.99,,2013-02-01 03:42:00,
2013-01-31 21:52:00,22.0,7.0,-100.00,NNW,335,8.0,14.0,51,-99.99,,,-99.99,,2013-02-01 03:52:00,
2013-01-31 22:02:00,22.0,7.0,-100.00,NNW,335,8.0,14.0,51,-99.99,,,-99.99,,2013-02-01 04:02:00,
2013-01-31 22:11:00,22.0,6.0,-100.00,NW,320,11.0,21.0,50,-99.99,,,-99.99,,2013-02-01 04:11:00,
2013-01-31 22:21:00,21.0,4.0,-100.00,North,0,14.0,21.0,48,-99.99,,,-99.99,,2013-02-01 04:21:00,
2013-01-31 22:32:00,21.0,5.0,-100.00,North,0,9.0,14.0,49,-99.99,,,-99.99,,2013-02-01 04:32:00,
2013-01-31 22:41:00,21.0,5.0,-100.00,North,0,9.0,14.0,49,-99.99,,,-99.99,,2013-02-01 04:41:00,
2013-01-31 22:52:00,20.0,4.0,-100.00,North,0,8.0,16.0,49,-99.99,,,-99.99,,2013-02-01 04:52:00,
2013-01-31 23:03:00,20.0,4.0,-100.00,North,0,8.0,16.0,49,-99.99,,,-99.99,,2013-02-01 05:03:00,
2013-01-31 23:12:00,20.0,4.0,-100.00,North,0,6.0,16.0,50,-99.99,,,-99.99,,2013-02-01 05:12:00,
2013-01-31 23:22:00,19.0,3.0,-100.00,NNW,335,9.0,16.0,49,-99.99,,,-99.99,,2013-02-01 05:22:00,
2013-01-31 23:30:00,19.0,2.0,-100.00,North,0,9.0,17.0,47,-99.99,,,-99.99,,2013-02-01 05:30:00,
2013-01-31 23:32:00,19.0,2.0,-100.00,North,350,12.0,21.0,47,-99.99,,,-99.99,,2013-02-01 05:32:00,
2013-01-31 23:42:00,19.0,2.0,-100.00,North,350,12.0,21.0,47,-99.99,,,-99.99,,2013-02-01 05:42:00,
2013-01-31 23:52:00,19.0,2.0,-100.00,North,0,6.0,12.0,47,-99.99,,,-99.99,,2013-02-01 05:52:00,